Derby Weather Historical Data
 
Daily Summary for January 22, 2020 Units:  Metric    English   Both
Daily Weekly Monthly Yearly Custom
  Current: High: Low: Average:
Temperature: 9.4 °C 9.8 °C 3.8 °C 6.3 °C
Dew Point: 8.5 °C 8.8 °C 3.4 °C 5.9 °C
Humidity: 94% 98% 93% 97%
Wind Speed: 1.6km/h 4.8km/h 0km/h 1.6km/h
Wind Gust: 3.2km/h 8km/h - -
WindSW - - WNW
Pressure: 1034.4 hPa 1036.8 hPa 1034.4 hPa -
Precipitation: 0 mm      
 
 
Tabular Data for January 22, 2020
Time Temperature Dew Point Pressure Wind Wind Speed Wind Gust Humidity Rainfall Rate (Hourly)
00:00 5.9 °C 5.4 °C 1036.8 hPa WNW 3.2 km/h 4.8 km/h 97% 0 mm
00:10 5.8 °C 5.4 °C 1036.8 hPa WNW 1.6 km/h 6.4 km/h 97% 0 mm
00:20 5.8 °C 5.3 °C 1036.8 hPa WNW 3.2 km/h 6.4 km/h 97% 0 mm
00:30 5.7 °C 5.3 °C 1036.8 hPa WNW 3.2 km/h 6.4 km/h 97% 0 mm
00:40 5.8 °C 5.4 °C 1036.5 hPa WNW 3.2 km/h 6.4 km/h 97% 0 mm
00:50 5.8 °C 5.4 °C 1036.5 hPa WNW 3.2 km/h 8 km/h 97% 0 mm
01:00 5.9 °C 5.4 °C 1036.5 hPa NW 3.2 km/h 6.4 km/h 97% 0 mm
01:10 5.8 °C 5.4 °C 1036.5 hPa NW 3.2 km/h 4.8 km/h 97% 0 mm
01:20 5.6 °C 5.2 °C 1036.5 hPa NW 3.2 km/h 4.8 km/h 97% 0 mm
01:30 5.5 °C 5.1 °C 1036.1 hPa WNW 3.2 km/h 4.8 km/h 97% 0 mm
01:40 5.3 °C 4.9 °C 1036.1 hPa NW 3.2 km/h 6.4 km/h 97% 0 mm
01:50 5.3 °C 4.9 °C 1036.1 hPa NW 3.2 km/h 6.4 km/h 97% 0 mm
02:00 5.4 °C 5.2 °C 1036.1 hPa NW 3.2 km/h 6.4 km/h 98% 0 mm
02:10 5.5 °C 5.2 °C 1036.1 hPa NW 1.6 km/h 6.4 km/h 98% 0 mm
02:20 5.4 °C 5 °C 1036.1 hPa NW 3.2 km/h 4.8 km/h 97% 0 mm
02:30 5.3 °C 5.1 °C 1036.1 hPa NW 3.2 km/h 4.8 km/h 98% 0 mm
02:40 5.1 °C 4.6 °C 1036.1 hPa NNW 4.8 km/h 6.4 km/h 97% 0 mm
02:50 5 °C 4.6 °C 1036.1 hPa NW 3.2 km/h 6.4 km/h 97% 0 mm
03:00 4.9 °C 4.7 °C 1036.1 hPa NW 1.6 km/h 6.4 km/h 98% 0 mm
03:10 4.9 °C 4.7 °C 1036.1 hPa NW 3.2 km/h 4.8 km/h 98% 0 mm
03:20 4.8 °C 4.4 °C 1035.8 hPa NW 4.8 km/h 6.4 km/h 97% 0 mm
03:30 4.6 °C 4.1 °C 1035.8 hPa NW 3.2 km/h 6.4 km/h 97% 0 mm
03:40 4.5 °C 4.1 °C 1035.4 hPa NW 3.2 km/h 6.4 km/h 97% 0 mm
03:50 4.6 °C 4.2 °C 1035.4 hPa NW 1.6 km/h 4.8 km/h 97% 0 mm
04:00 4.7 °C 4.4 °C 1035.8 hPa NW 1.6 km/h 3.2 km/h 98% 0 mm
04:10 4.8 °C 4.5 °C 1035.4 hPa NW 1.6 km/h 3.2 km/h 98% 0 mm
04:20 4.7 °C 4.4 °C 1035.4 hPa Calm   3.2 km/h 98% 0 mm
04:30 4.7 °C 4.2 °C 1035.4 hPa NW 1.6 km/h 1.6 km/h 97% 0 mm
04:40 4.7 °C 4.4 °C 1035.4 hPa NW 1.6 km/h 3.2 km/h 98% 0 mm
04:50 4.7 °C 4.4 °C 1035.1 hPa NW 1.6 km/h 3.2 km/h 98% 0 mm
05:00 4.7 °C 4.4 °C 1035.1 hPa NW 1.6 km/h 3.2 km/h 98% 0 mm
05:10 4.2 °C 3.8 °C 1035.1 hPa NNW 3.2 km/h 4.8 km/h 97% 0 mm
05:20 3.8 °C 3.4 °C 1035.4 hPa NNW 4.8 km/h 6.4 km/h 97% 0 mm
05:30 3.8 °C 3.4 °C 1035.4 hPa NNW 3.2 km/h 6.4 km/h 97% 0 mm
05:40 4.2 °C 3.9 °C 1035.4 hPa NNW 1.6 km/h 3.2 km/h 98% 0 mm
05:50 4.3 °C 4 °C 1035.4 hPa NNW 1.6 km/h 3.2 km/h 98% 0 mm
06:00 4.2 °C 3.9 °C 1035.4 hPa NW 3.2 km/h 4.8 km/h 98% 0 mm
06:10 4.2 °C 3.9 °C 1035.4 hPa WNW 3.2 km/h 4.8 km/h 98% 0 mm
06:20 4.4 °C 4.2 °C 1035.1 hPa NW 3.2 km/h 6.4 km/h 98% 0 mm
06:30 4.5 °C 4.2 °C 1035.1 hPa NW 3.2 km/h 6.4 km/h 98% 0 mm
06:40 4.3 °C 4 °C 1035.1 hPa NW 3.2 km/h 4.8 km/h 98% 0 mm
06:50 3.8 °C 3.4 °C 1035.1 hPa NNW 4.8 km/h 6.4 km/h 97% 0 mm
07:00 3.9 °C 3.7 °C 1035.1 hPa NW 3.2 km/h 6.4 km/h 98% 0 mm
07:10 4.2 °C 3.9 °C 1035.1 hPa NNW 3.2 km/h 4.8 km/h 98% 0 mm
07:20 4.3 °C 4 °C 1035.1 hPa NNW 1.6 km/h 3.2 km/h 98% 0 mm
07:30 4.3 °C 4 °C 1035.1 hPa NNW 1.6 km/h 3.2 km/h 98% 0 mm
07:40 4.3 °C 4 °C 1035.1 hPa NNW 1.6 km/h 3.2 km/h 98% 0 mm
07:50 4.3 °C 4.1 °C 1035.4 hPa NNW 1.6 km/h 3.2 km/h 98% 0 mm
08:00 4.3 °C 4.1 °C 1035.4 hPa Calm   3.2 km/h 98% 0 mm
08:10 4.3 °C 4 °C 1035.4 hPa NNW 1.6 km/h 1.6 km/h 98% 0 mm
08:20 4.2 °C 3.9 °C 1035.8 hPa NNW 1.6 km/h 3.2 km/h 98% 0 mm
08:30 4.2 °C 3.9 °C 1035.8 hPa Calm   3.2 km/h 98% 0 mm
08:40 4.2 °C 3.9 °C 1035.8 hPa Calm     98% 0 mm
08:50 4.3 °C 4 °C 1035.8 hPa Calm     98% 0 mm
09:00 4.3 °C 4.1 °C 1035.8 hPa Calm   1.6 km/h 98% 0 mm
09:10 4.7 °C 4.4 °C 1035.8 hPa NNW 1.6 km/h 3.2 km/h 98% 0 mm
09:20 4.7 °C 4.4 °C 1035.8 hPa NNW 1.6 km/h 3.2 km/h 98% 0 mm
09:30 4.9 °C 4.6 °C 1035.8 hPa NNW 1.6 km/h 1.6 km/h 98% 0 mm
09:40 5.5 °C 5.2 °C 1035.8 hPa Calm   1.6 km/h 98% 0 mm
09:50 6.6 °C 6.3 °C 1035.8 hPa Calm   3.2 km/h 98% 0 mm
10:00 6.9 °C 6.7 °C 1035.8 hPa Calm   1.6 km/h 98% 0 mm
10:10 6.9 °C 6.6 °C 1036.1 hPa NNW 1.6 km/h 3.2 km/h 98% 0 mm
10:20 6.6 °C 6.1 °C 1036.1 hPa NNW 1.6 km/h 3.2 km/h 97% 0 mm
10:30 6.6 °C 6.3 °C 1036.1 hPa Calm   3.2 km/h 98% 0 mm
10:40 6.6 °C 6.3 °C 1036.1 hPa Calm   3.2 km/h 98% 0 mm
10:50 6.7 °C 6.4 °C 1036.1 hPa Calm   1.6 km/h 98% 0 mm
11:00 6.9 °C 6.6 °C 1036.1 hPa Calm     98% 0 mm
11:10 7.2 °C 6.9 °C 1036.1 hPa Calm   1.6 km/h 98% 0 mm
11:20 7.4 °C 7.2 °C 1036.1 hPa Calm   1.6 km/h 98% 0 mm
11:30 7.6 °C 7.3 °C 1036.1 hPa Calm   1.6 km/h 98% 0 mm
11:40 7.8 °C 7.6 °C 1036.1 hPa Calm   1.6 km/h 98% 0 mm
11:50 8.2 °C 7.9 °C 1036.1 hPa SE 3.2 km/h 4.8 km/h 98% 0 mm
12:00 8.4 °C 8.1 °C 1035.8 hPa SE 1.6 km/h 4.8 km/h 98% 0 mm
12:10 8.6 °C 8.3 °C 1035.8 hPa SE 1.6 km/h 3.2 km/h 98% 0 mm
12:20 8.8 °C 8.3 °C 1035.8 hPa Calm   3.2 km/h 97% 0 mm
12:30 8.9 °C 8.5 °C 1035.4 hPa Calm   4.8 km/h 97% 0 mm
12:40 9.1 °C 8.4 °C 1035.4 hPa Calm   1.6 km/h 96% 0 mm
12:50 9.2 °C 8.6 °C 1035.4 hPa SE 1.6 km/h 3.2 km/h 96% 0 mm
13:00 9.3 °C 8.5 °C 1035.1 hPa Calm   3.2 km/h 95% 0 mm
13:10 9.3 °C 8.6 °C 1035.4 hPa SE 1.6 km/h 3.2 km/h 95% 0 mm
13:20 9.3 °C 8.4 °C 1035.4 hPa Calm   1.6 km/h 94% 0 mm
13:30 9.3 °C 8.4 °C 1035.1 hPa Calm   1.6 km/h 94% 0 mm
13:40 9.3 °C 8.4 °C 1035.1 hPa Calm   1.6 km/h 94% 0 mm
13:50 9.3 °C 8.4 °C 1035.1 hPa Calm   1.6 km/h 94% 0 mm
14:00 9.4 °C 8.4 °C 1034.8 hPa SE 1.6 km/h 1.6 km/h 94% 0 mm
14:10 9.4 °C 8.5 °C 1034.8 hPa SE 1.6 km/h 3.2 km/h 94% 0 mm
14:20 9.6 °C 8.6 °C 1034.8 hPa Calm   3.2 km/h 94% 0 mm
14:30 9.7 °C 8.7 °C 1034.8 hPa Calm   3.2 km/h 94% 0 mm
14:40 9.8 °C 8.8 °C 1034.4 hPa Calm   3.2 km/h 94% 0 mm
14:50 9.8 °C 8.8 °C 1034.4 hPa Calm   1.6 km/h 93% 0 mm
15:00 9.8 °C 8.7 °C 1034.4 hPa SE 1.6 km/h 1.6 km/h 93% 0 mm
15:10 9.7 °C 8.6 °C 1034.4 hPa SE 1.6 km/h 3.2 km/h 93% 0 mm
15:20 9.7 °C 8.7 °C 1034.4 hPa Calm   1.6 km/h 94% 0 mm
15:30 9.7 °C 8.7 °C 1034.4 hPa Calm   1.6 km/h 94% 0 mm
15:40 9.7 °C 8.7 °C 1034.4 hPa Calm     94% 0 mm
15:50 9.7 °C 8.8 °C 1034.4 hPa Calm   1.6 km/h 94% 0 mm
16:00 9.7 °C 8.7 °C 1034.4 hPa Calm   1.6 km/h 94% 0 mm
16:10 9.6 °C 8.6 °C 1034.4 hPa SE 1.6 km/h 3.2 km/h 94% 0 mm
16:20 9.4 °C 8.5 °C 1034.4 hPa SW 1.6 km/h 3.2 km/h 94% 0 mm
Derby Weather - 1 mb